createdAt,value
2022-10-11T00:00:11.972Z,12.98
2022-10-11T00:02:39.005Z,11.80
2022-10-11T00:05:06.571Z,11.20
2022-10-11T00:07:33.629Z,9.30
2022-10-11T00:10:00.768Z,10.98
2022-10-11T00:12:27.709Z,11.50
2022-10-11T00:14:54.605Z,17.58
2022-10-11T00:17:21.615Z,16.15
2022-10-11T00:19:48.657Z,13.02
2022-10-11T00:22:15.625Z,10.70
2022-10-11T00:24:42.628Z,12.43
2022-10-11T00:27:09.650Z,9.32
2022-10-11T00:29:38.297Z,8.13
2022-10-11T00:32:05.804Z,15.40
2022-10-11T00:34:32.833Z,11.70
2022-10-11T00:36:59.756Z,16.60
2022-10-11T00:39:26.958Z,15.52
2022-10-11T00:41:54.161Z,7.25
2022-10-11T00:44:24.558Z,31.17
2022-10-11T00:47:12.571Z,20.15
2022-10-11T00:49:50.334Z,11.45
2022-10-11T00:52:29.153Z,9.57
2022-10-11T00:54:58.330Z,11.55
2022-10-11T00:57:29.655Z,16.48
2022-10-11T00:59:56.753Z,15.20
2022-10-11T01:02:24.883Z,7.65
2022-10-11T01:05:11.293Z,12.18
2022-10-11T01:07:40.578Z,15.07
2022-10-11T01:10:07.734Z,11.23
2022-10-11T01:12:35.373Z,9.48
2022-10-11T01:15:15.912Z,17.00
2022-10-11T01:18:13.385Z,10.25
2022-10-11T01:21:00.861Z,5.15
2022-10-11T01:23:33.882Z,8.27
2022-10-11T01:26:38.565Z,16.38
2022-10-11T01:29:24.106Z,11.57
2022-10-11T01:32:22.169Z,15.30
2022-10-11T01:34:56.772Z,8.80
2022-10-11T01:37:45.329Z,18.25
2022-10-11T01:40:38.437Z,64.65
2022-10-11T01:43:06.113Z,11.25
2022-10-11T01:45:34.848Z,14.55
2022-10-11T01:48:04.560Z,13.55
2022-10-11T01:50:50.389Z,10.68
2022-10-11T01:53:36.132Z,9.13
2022-10-11T01:56:16.606Z,12.85
2022-10-11T01:59:09.380Z,12.05
2022-10-11T02:02:13.955Z,9.20
2022-10-11T02:05:16.081Z,6.30
2022-10-11T02:07:50.426Z,8.43
2022-10-11T02:10:36.105Z,8.50
2022-10-11T02:13:13.198Z,7.85
2022-10-11T02:15:42.341Z,9.48
2022-10-11T02:18:15.033Z,11.98
2022-10-11T02:20:44.137Z,7.85
2022-10-11T02:23:18.772Z,11.65
2022-10-11T02:25:47.388Z,7.22
2022-10-11T02:28:20.749Z,6.70
2022-10-11T02:30:49.760Z,10.90
2022-10-11T02:33:22.891Z,20.90
2022-10-11T02:35:58.708Z,15.90
2022-10-11T02:38:34.041Z,16.73
2022-10-11T02:41:17.653Z,193.43
2022-10-11T02:44:00.591Z,177.27
2022-10-11T02:46:30.604Z,81.60
2022-10-11T02:48:59.883Z,30.23
2022-10-11T02:51:30.221Z,95.43
2022-10-11T02:53:57.527Z,83.18
2022-10-11T02:56:24.726Z,14.10
2022-10-11T02:58:51.805Z,21.38
2022-10-11T03:01:18.844Z,10.95
2022-10-11T03:03:45.877Z,15.02
2022-10-11T03:06:12.917Z,14.95
2022-10-11T03:08:40.008Z,12.13
2022-10-11T03:11:07.117Z,18.63
2022-10-11T03:13:34.165Z,8.98
2022-10-11T03:16:03.687Z,10.07
2022-10-11T03:18:31.444Z,14.55
2022-10-11T03:20:58.608Z,18.10
2022-10-11T03:23:25.702Z,12.32
2022-10-11T03:25:52.766Z,20.98
2022-10-11T03:28:20.231Z,13.13
2022-10-11T03:30:51.558Z,12.52
2022-10-11T03:33:19.080Z,14.00
2022-10-11T03:35:47.767Z,23.95
2022-10-11T03:38:18.073Z,13.25
2022-10-11T03:40:45.166Z,11.52
2022-10-11T03:43:12.732Z,15.55
2022-10-11T03:45:42.372Z,15.77
2022-10-11T03:48:09.814Z,14.57
2022-10-11T03:50:37.374Z,24.58
2022-10-11T03:53:05.258Z,29.90
2022-10-11T03:55:32.536Z,11.75
2022-10-11T03:57:59.636Z,14.48
2022-10-11T04:00:26.695Z,20.48
2022-10-11T04:02:53.592Z,15.40
2022-10-11T04:05:20.838Z,10.90
2022-10-11T04:07:47.801Z,11.82
2022-10-11T04:10:14.765Z,13.05
2022-10-11T04:12:41.763Z,19.15
2022-10-11T04:15:09.173Z,13.82
2022-10-11T04:17:36.088Z,20.73
2022-10-11T04:20:03.129Z,14.57
2022-10-11T04:22:30.106Z,14.45
2022-10-11T04:24:57.147Z,13.70
2022-10-11T04:27:24.122Z,13.13
2022-10-11T04:29:51.068Z,11.93
2022-10-11T04:32:18.015Z,13.48
2022-10-11T04:34:45.146Z,17.08
2022-10-11T04:37:12.266Z,13.57
2022-10-11T04:39:39.378Z,15.30
2022-10-11T04:42:06.283Z,13.55
2022-10-11T04:44:33.347Z,13.65
2022-10-11T04:47:00.348Z,17.02
2022-10-11T04:49:27.620Z,16.35
2022-10-11T04:51:54.614Z,14.80
2022-10-11T04:54:21.599Z,13.20
2022-10-11T04:56:48.627Z,28.23
2022-10-11T04:59:15.611Z,26.92
2022-10-11T05:01:42.598Z,28.77
2022-10-11T05:04:09.601Z,24.70
2022-10-11T05:06:36.534Z,17.23
2022-10-11T05:09:03.761Z,18.77
2022-10-11T05:11:31.096Z,18.55
2022-10-11T05:13:58.103Z,22.50
2022-10-11T05:16:25.331Z,20.52
2022-10-11T05:18:52.494Z,40.95
2022-10-11T05:21:28.277Z,55.72
2022-10-11T05:23:56.441Z,78.15
2022-10-11T05:26:27.960Z,94.65
2022-10-11T05:28:55.641Z,62.03
2022-10-11T05:31:22.774Z,53.55
2022-10-11T05:33:49.904Z,48.38
2022-10-11T05:36:17.038Z,29.60
2022-10-11T05:38:44.314Z,24.25
2022-10-11T05:41:14.648Z,27.58
2022-10-11T05:43:41.899Z,21.77
2022-10-11T05:46:09.116Z,30.60
2022-10-11T05:48:36.375Z,24.20
2022-10-11T05:51:06.156Z,25.80
2022-10-11T05:53:33.640Z,26.85
2022-10-11T05:56:00.943Z,36.80
2022-10-11T05:58:28.326Z,35.50
2022-10-11T06:00:56.984Z,18.13
2022-10-11T06:03:24.542Z,17.60
2022-10-11T06:05:56.479Z,24.92
2022-10-11T06:08:24.002Z,15.27
2022-10-11T06:10:51.058Z,13.85
2022-10-11T06:13:18.556Z,18.40
2022-10-11T06:15:45.535Z,26.58
2022-10-11T06:18:12.520Z,17.50
2022-10-11T06:20:39.609Z,20.13
2022-10-11T06:23:06.513Z,22.23
2022-10-11T06:25:33.558Z,26.33
2022-10-11T06:28:00.574Z,28.38
2022-10-11T06:30:27.544Z,25.10
2022-10-11T06:32:54.568Z,22.73
2022-10-11T06:35:21.503Z,23.45
2022-10-11T06:37:48.473Z,28.60
2022-10-11T06:40:15.508Z,34.45
2022-10-11T06:42:42.401Z,58.30
2022-10-11T06:45:09.867Z,41.40
2022-10-11T06:47:36.740Z,51.10
2022-10-11T06:50:05.587Z,33.03
2022-10-11T06:52:32.638Z,29.08
2022-10-11T06:54:59.709Z,33.92
2022-10-11T06:57:28.243Z,34.28
2022-10-11T06:59:55.175Z,33.63
2022-10-11T07:02:22.189Z,35.45
2022-10-11T07:04:49.177Z,31.63
2022-10-11T07:07:16.107Z,37.22
2022-10-11T07:09:43.141Z,42.83
2022-10-11T07:12:10.215Z,33.20
2022-10-11T07:14:37.330Z,28.40
2022-10-11T07:17:04.512Z,39.72
2022-10-11T07:19:31.700Z,33.08
2022-10-11T07:21:58.761Z,31.48
2022-10-11T07:24:25.917Z,27.27
2022-10-11T07:26:53.026Z,36.58
2022-10-11T07:29:19.957Z,33.90
2022-10-11T07:31:46.941Z,29.90
2022-10-11T07:34:13.937Z,38.95
2022-10-11T07:36:41.158Z,32.92
2022-10-11T07:39:08.921Z,32.08
2022-10-11T07:41:38.166Z,32.60
2022-10-11T07:44:07.723Z,31.70
2022-10-11T07:46:34.746Z,31.05
2022-10-11T07:49:01.734Z,33.40
2022-10-11T07:51:28.787Z,34.97
2022-10-11T07:53:57.363Z,30.35
2022-10-11T07:56:29.213Z,28.92
2022-10-11T07:58:59.610Z,25.17
2022-10-11T08:01:27.953Z,25.20
2022-10-11T08:03:56.916Z,24.40
2022-10-11T08:06:29.973Z,29.38
2022-10-11T08:09:00.147Z,31.60
2022-10-11T08:11:30.292Z,36.75
2022-10-11T08:13:59.448Z,26.02
2022-10-11T08:16:26.738Z,25.92
2022-10-11T08:18:56.649Z,40.65
2022-10-11T08:21:23.854Z,52.25
2022-10-11T08:23:50.946Z,32.58
2022-10-11T08:26:18.038Z,37.42
2022-10-11T08:28:45.014Z,41.55
2022-10-11T08:31:16.766Z,44.78
2022-10-11T08:33:43.991Z,37.13
2022-10-11T08:36:12.112Z,44.20
2022-10-11T08:38:40.141Z,39.22
2022-10-11T08:41:28.343Z,42.78
2022-10-11T08:44:18.222Z,32.53
2022-10-11T08:46:50.395Z,31.48
2022-10-11T08:49:23.317Z,41.78
2022-10-11T08:52:00.419Z,34.58
2022-10-11T08:54:43.353Z,36.38
2022-10-11T08:57:17.981Z,38.92
2022-10-11T08:59:57.897Z,33.25
2022-10-11T09:03:08.165Z,34.95
2022-10-11T09:05:44.553Z,41.45
2022-10-11T09:08:21.497Z,31.20
2022-10-11T09:10:59.821Z,34.20
2022-10-11T09:13:52.525Z,34.47
2022-10-11T09:16:26.387Z,30.85
2022-10-11T09:19:11.618Z,40.80
2022-10-11T09:22:00.196Z,33.00
2022-10-11T09:24:39.520Z,39.00
2022-10-11T09:28:01.223Z,37.00
2022-10-11T09:30:24.029Z,34.15
2022-10-11T09:33:11.476Z,38.03
2022-10-11T09:35:46.466Z,35.13
2022-10-11T09:38:27.370Z,33.88
2022-10-11T09:41:23.469Z,38.83
2022-10-11T09:43:52.345Z,37.85
2022-10-11T09:46:40.342Z,44.90
2022-10-11T09:49:14.834Z,34.65
2022-10-11T09:51:47.327Z,38.25
2022-10-11T09:54:14.404Z,35.33
2022-10-11T09:56:44.466Z,31.90
2022-10-11T09:59:36.055Z,38.38
2022-10-11T10:02:22.400Z,30.08
2022-10-11T10:05:10.530Z,27.80
2022-10-11T10:07:41.077Z,38.60
2022-10-11T10:10:28.696Z,36.38
2022-10-11T10:12:59.498Z,39.55
2022-10-11T10:15:35.410Z,37.65
2022-10-11T10:18:03.921Z,30.88
2022-10-11T10:20:34.354Z,41.42
2022-10-11T10:23:21.965Z,28.10
2022-10-11T10:25:51.799Z,42.90
2022-10-11T10:28:23.204Z,39.40
2022-10-11T10:30:54.438Z,41.13
2022-10-11T10:33:27.101Z,37.85
2022-10-11T10:35:56.661Z,39.55
2022-10-11T10:38:28.772Z,31.27
2022-10-11T10:41:09.397Z,38.13
2022-10-11T10:43:39.747Z,35.50
2022-10-11T10:46:14.035Z,35.40
2022-10-11T10:52:06.073Z,38.95
2022-10-11T10:54:48.000Z,37.03
2022-10-11T10:57:25.266Z,46.50
2022-10-11T11:00:14.854Z,34.33
2022-10-11T11:02:47.256Z,32.47
2022-10-11T11:05:27.156Z,31.80
2022-10-11T11:08:27.922Z,38.95
2022-10-11T11:11:04.500Z,34.65
2022-10-11T11:13:55.627Z,31.20
2022-10-11T11:16:32.935Z,37.90
2022-10-11T11:19:37.514Z,28.80
2022-10-11T11:22:22.181Z,23.27
2022-10-11T11:25:14.807Z,27.42
2022-10-11T11:27:54.262Z,25.90
2022-10-11T11:30:27.223Z,29.30
2022-10-11T11:32:57.149Z,28.67
2022-10-11T11:35:47.557Z,34.40
2022-10-11T11:38:51.083Z,25.55
2022-10-11T11:41:24.121Z,21.45
2022-10-11T11:44:12.153Z,22.58
2022-10-11T11:46:48.144Z,33.22
2022-10-11T11:49:31.775Z,27.48
2022-10-11T11:51:59.951Z,25.55
2022-10-11T11:55:00.161Z,20.70
2022-10-11T11:57:52.004Z,22.15
2022-10-11T12:00:25.753Z,16.35
2022-10-11T12:03:13.380Z,21.25
2022-10-11T12:06:12.348Z,18.70
2022-10-11T12:08:44.672Z,17.83
2022-10-11T12:11:21.987Z,23.90
2022-10-11T12:13:52.145Z,13.00
2022-10-11T12:16:20.286Z,19.17
2022-10-11T12:18:59.036Z,19.67
2022-10-11T12:21:36.628Z,23.42
2022-10-11T12:24:12.248Z,16.83
2022-10-11T12:26:42.977Z,17.17
2022-10-11T12:29:18.914Z,23.42
2022-10-11T12:31:49.303Z,19.08
2022-10-11T12:34:26.889Z,24.60
2022-10-11T12:36:53.963Z,24.42
2022-10-11T12:39:20.932Z,16.25
2022-10-11T12:41:47.878Z,19.88
2022-10-11T12:44:29.317Z,41.03
2022-10-11T12:46:59.115Z,21.40
2022-10-11T12:49:43.449Z,23.35
2022-10-11T12:52:16.784Z,21.20
2022-10-11T12:55:48.465Z,18.30
2022-10-11T12:58:30.853Z,19.52
2022-10-11T13:00:58.095Z,17.00
2022-10-11T13:03:33.675Z,23.85
2022-10-11T13:06:10.230Z,13.52
2022-10-11T13:08:43.177Z,14.55
2022-10-11T13:11:16.691Z,17.42
2022-10-11T13:13:49.870Z,13.82
2022-10-11T13:16:20.228Z,15.13
2022-10-11T13:18:50.613Z,15.32
2022-10-11T13:21:27.005Z,15.60
2022-10-11T13:24:11.769Z,16.63
2022-10-11T13:26:39.223Z,18.58
2022-10-11T13:29:19.634Z,16.98
2022-10-11T13:31:48.346Z,17.80
2022-10-11T13:34:18.618Z,12.25
2022-10-11T13:36:48.072Z,14.07
2022-10-11T13:39:41.643Z,18.42
2022-10-11T13:42:14.118Z,16.95
2022-10-11T13:44:43.220Z,19.88
2022-10-11T13:47:15.340Z,14.70
2022-10-11T13:50:08.446Z,20.70
2022-10-11T13:52:35.445Z,15.60
2022-10-11T13:55:05.989Z,16.13
2022-10-11T13:57:39.109Z,18.08
2022-10-11T14:00:27.104Z,14.73
2022-10-11T14:03:18.116Z,24.50
2022-10-11T14:05:56.698Z,17.92
2022-10-11T14:08:38.803Z,16.92
2022-10-11T14:11:07.794Z,14.35
2022-10-11T14:13:42.283Z,15.68
2022-10-11T14:16:12.460Z,10.48
2022-10-11T14:18:47.190Z,21.10
2022-10-11T14:21:20.476Z,14.93
2022-10-11T14:23:50.640Z,14.90
2022-10-11T14:26:19.297Z,11.52
2022-10-11T14:28:49.548Z,18.20
2022-10-11T14:31:16.582Z,17.67
2022-10-11T14:33:43.867Z,20.83
2022-10-11T14:36:10.831Z,14.05
2022-10-11T14:38:37.784Z,23.23
2022-10-11T14:41:04.829Z,24.83
2022-10-11T14:43:31.756Z,16.42
2022-10-11T14:45:58.708Z,11.95
2022-10-11T14:48:53.645Z,15.20
2022-10-11T14:51:14.201Z,19.92
2022-10-11T14:53:46.272Z,16.10
2022-10-11T14:56:18.925Z,18.60
2022-10-11T14:58:48.368Z,15.23
2022-10-11T15:01:16.740Z,40.92
2022-10-11T15:03:43.774Z,20.38
2022-10-11T15:06:40.818Z,27.85
2022-10-11T15:09:08.279Z,15.20
2022-10-11T15:11:38.141Z,37.90
2022-10-11T15:14:06.103Z,20.85
2022-10-11T15:16:33.827Z,17.70
2022-10-11T15:19:01.262Z,18.13
2022-10-11T15:21:29.769Z,22.45
2022-10-11T15:23:57.210Z,22.27
2022-10-11T15:26:26.427Z,51.58
2022-10-11T15:28:55.145Z,19.35
2022-10-11T15:31:22.888Z,15.55
2022-10-11T15:33:50.234Z,18.90
2022-10-11T15:36:20.348Z,16.67
2022-10-11T15:38:48.464Z,23.25
2022-10-11T15:41:19.297Z,17.70
2022-10-11T15:43:48.456Z,23.00
2022-10-11T15:46:18.728Z,24.25
2022-10-11T15:48:46.213Z,25.02
2022-10-11T15:51:13.307Z,25.75
2022-10-11T15:53:40.746Z,16.77
2022-10-11T15:56:12.124Z,19.55
2022-10-11T15:58:40.964Z,16.95
2022-10-11T16:01:12.554Z,15.75
2022-10-11T16:03:39.745Z,17.30
2022-10-11T16:06:07.284Z,18.88
2022-10-11T16:08:35.222Z,17.40
2022-10-11T16:11:02.942Z,15.90
2022-10-11T16:13:31.197Z,22.27
2022-10-11T16:16:00.214Z,22.73
2022-10-11T16:18:30.133Z,21.75
2022-10-11T16:21:01.258Z,24.35
2022-10-11T16:23:28.149Z,15.73
2022-10-11T16:26:00.589Z,24.55
2022-10-11T16:28:28.745Z,19.10
2022-10-11T16:30:56.084Z,23.95
2022-10-11T16:33:24.429Z,13.00
2022-10-11T16:35:52.190Z,14.20
2022-10-11T16:38:19.209Z,18.20
2022-10-11T16:40:46.130Z,18.23
2022-10-11T16:43:13.107Z,15.55
2022-10-11T16:45:40.065Z,12.90
2022-10-11T16:48:07.009Z,24.05
2022-10-11T16:50:39.096Z,18.30
2022-10-11T16:53:06.606Z,19.13
2022-10-11T16:55:33.582Z,15.95
2022-10-11T16:58:00.522Z,18.88
2022-10-11T17:00:27.547Z,19.75
2022-10-11T17:02:54.507Z,18.65
2022-10-11T17:05:21.430Z,15.27
2022-10-11T17:07:48.598Z,15.52
2022-10-11T17:10:15.837Z,15.90
2022-10-11T17:12:46.528Z,16.17
2022-10-11T17:15:17.090Z,24.38
2022-10-11T17:17:44.454Z,22.17
2022-10-11T17:20:11.501Z,17.17
2022-10-11T17:22:38.505Z,13.93
2022-10-11T17:25:05.965Z,13.95
2022-10-11T17:27:33.150Z,17.55
2022-10-11T17:30:00.057Z,15.18
2022-10-11T17:32:27.207Z,17.80
2022-10-11T17:34:54.220Z,17.02
2022-10-11T17:37:21.296Z,22.35
2022-10-11T17:39:48.408Z,17.30
2022-10-11T17:42:15.462Z,14.85
2022-10-11T17:44:42.388Z,15.82
2022-10-11T17:47:09.522Z,16.90
2022-10-11T17:49:36.692Z,25.35
2022-10-11T17:52:03.977Z,19.48
2022-10-11T17:54:31.115Z,15.63
2022-10-11T17:56:58.437Z,18.77
2022-10-11T17:59:27.693Z,22.15
2022-10-11T18:01:54.924Z,18.33
2022-10-11T18:04:22.551Z,19.67
2022-10-11T18:06:49.730Z,21.42
2022-10-11T18:09:18.578Z,23.90
2022-10-11T18:11:46.335Z,26.00
2022-10-11T18:14:13.374Z,26.92
2022-10-11T18:16:40.933Z,19.08
2022-10-11T18:19:11.550Z,21.77
2022-10-11T18:21:39.148Z,19.40
2022-10-11T18:24:10.950Z,24.55
2022-10-11T18:26:38.390Z,17.45
2022-10-11T18:29:05.482Z,18.80
2022-10-11T18:31:35.230Z,24.05
2022-10-11T18:34:03.755Z,21.65
2022-10-11T18:36:31.427Z,20.30
2022-10-11T18:39:01.837Z,16.20
2022-10-11T18:41:32.059Z,18.27
2022-10-11T18:44:02.144Z,17.98
2022-10-11T18:46:29.779Z,16.90
2022-10-11T18:48:58.797Z,17.67
2022-10-11T18:51:28.354Z,22.92
2022-10-11T18:53:55.546Z,17.83
2022-10-11T18:56:27.035Z,26.85
2022-10-11T18:58:56.074Z,19.85
2022-10-11T19:01:32.376Z,18.23
2022-10-11T19:04:01.550Z,20.15
2022-10-11T19:06:38.132Z,16.83
2022-10-11T19:09:10.632Z,19.50
2022-10-11T19:11:37.970Z,28.30
2022-10-11T19:14:08.034Z,17.98
2022-10-11T19:16:40.600Z,19.38
2022-10-11T19:19:08.182Z,20.30
2022-10-11T19:21:35.873Z,14.07
2022-10-11T19:24:02.832Z,18.65
2022-10-11T19:26:33.834Z,16.33
2022-10-11T19:29:06.526Z,19.85
2022-10-11T19:31:35.195Z,15.15
2022-10-11T19:34:02.294Z,17.60
2022-10-11T19:36:33.979Z,17.38
2022-10-11T19:39:04.133Z,22.63
2022-10-11T19:41:31.070Z,22.02
2022-10-11T19:44:00.873Z,20.83
2022-10-11T19:49:17.814Z,16.98
2022-10-11T19:51:45.163Z,26.23
2022-10-11T19:54:14.038Z,27.77
2022-10-11T19:56:41.515Z,16.25
2022-10-11T19:59:08.665Z,17.77
2022-10-11T20:01:36.942Z,14.45
2022-10-11T20:04:22.688Z,24.73
2022-10-11T20:06:57.162Z,18.40
2022-10-11T20:09:29.460Z,16.55
2022-10-11T20:11:56.805Z,19.08
2022-10-11T20:14:23.822Z,16.33
2022-10-11T20:16:51.308Z,19.08
2022-10-11T20:19:18.808Z,16.17
2022-10-11T20:21:45.919Z,24.75
2022-10-11T20:24:13.152Z,21.90
2022-10-11T20:26:40.294Z,19.80
2022-10-11T20:29:07.573Z,19.58
2022-10-11T20:31:38.299Z,16.75
2022-10-11T20:34:07.462Z,20.85
2022-10-11T20:36:36.287Z,17.58
2022-10-11T20:39:04.795Z,28.42
2022-10-11T20:41:34.695Z,17.33
2022-10-11T20:44:02.476Z,22.50
2022-10-11T20:46:32.688Z,17.30
2022-10-11T20:49:02.521Z,19.33
2022-10-11T20:51:31.797Z,18.67
2022-10-11T20:53:59.264Z,19.67
2022-10-11T20:56:26.941Z,16.20
2022-10-11T20:58:55.466Z,18.65
2022-10-11T21:01:31.346Z,22.73
2022-10-11T21:04:00.043Z,30.17
2022-10-11T21:06:28.186Z,21.73
2022-10-11T21:08:56.342Z,18.80
2022-10-11T21:11:31.937Z,20.42
2022-10-11T21:14:00.682Z,19.40
2022-10-11T21:16:27.930Z,14.75
2022-10-11T21:18:56.994Z,20.00
2022-10-11T21:21:25.167Z,19.55
2022-10-11T21:23:57.266Z,20.02
2022-10-11T21:26:25.073Z,13.77
2022-10-11T21:28:52.351Z,18.88
2022-10-11T21:31:21.434Z,21.40
2022-10-11T21:33:48.790Z,19.60
2022-10-11T21:36:24.763Z,19.40
2022-10-11T21:38:52.613Z,30.40
2022-10-11T21:41:21.894Z,17.88
2022-10-11T21:43:49.470Z,22.48
2022-10-11T21:46:19.932Z,18.45
2022-10-11T21:48:47.704Z,24.25
2022-10-11T21:51:17.303Z,13.77
2022-10-11T21:53:44.223Z,19.55
2022-10-11T21:56:11.261Z,15.50
2022-10-11T21:58:38.296Z,15.98
2022-10-11T22:01:06.137Z,19.13
2022-10-11T22:03:33.150Z,17.65
2022-10-11T22:06:03.523Z,16.95
2022-10-11T22:08:30.771Z,18.70
2022-10-11T22:11:00.214Z,16.60
2022-10-11T22:13:29.121Z,19.25
2022-10-11T22:15:56.745Z,17.23
2022-10-11T22:18:29.860Z,19.38
2022-10-11T22:21:09.787Z,18.13
2022-10-11T22:23:36.753Z,15.45
2022-10-11T22:26:07.853Z,15.20
2022-10-11T22:28:35.675Z,18.98
2022-10-11T22:31:04.501Z,17.55
2022-10-11T22:33:31.642Z,20.95
2022-10-11T22:36:00.741Z,25.52
2022-10-11T22:38:28.135Z,20.27
2022-10-11T22:40:57.979Z,18.00
2022-10-11T22:43:25.208Z,19.08
2022-10-11T22:45:52.168Z,15.05
2022-10-11T22:48:19.114Z,21.20
2022-10-11T22:50:46.053Z,21.10
2022-10-11T22:53:14.242Z,16.98
2022-10-11T22:55:41.974Z,18.40
2022-10-11T22:58:09.262Z,14.77
2022-10-11T23:00:36.751Z,18.23
2022-10-11T23:03:04.348Z,19.95
2022-10-11T23:05:31.301Z,20.75
2022-10-11T23:07:58.199Z,18.08
2022-10-11T23:10:25.207Z,15.30
2022-10-11T23:12:52.112Z,18.27
2022-10-11T23:15:19.281Z,21.13
2022-10-11T23:17:46.215Z,15.48
2022-10-11T23:20:13.400Z,16.05
2022-10-11T23:22:40.304Z,22.50
2022-10-11T23:25:08.047Z,17.38
2022-10-11T23:27:35.124Z,15.45
2022-10-11T23:30:02.441Z,19.55
2022-10-11T23:32:29.372Z,17.95
2022-10-11T23:34:56.410Z,16.00
2022-10-11T23:37:23.312Z,23.00
2022-10-11T23:39:50.331Z,17.10
2022-10-11T23:42:17.230Z,13.57
2022-10-11T23:44:47.362Z,18.45
2022-10-11T23:47:14.265Z,13.98
2022-10-11T23:49:41.317Z,16.17
2022-10-11T23:52:08.233Z,19.33
2022-10-11T23:54:35.128Z,15.15
2022-10-11T23:57:02.122Z,36.45
2022-10-11T23:59:29.102Z,16.77
